Redbird, OK

9:39 PM CST on March 01, 2015 (GMT -0600)
Pecan Grove | Change Station
CLOSE
Current Station
Personal Weather Station
Location: Coweta, OK
Elevation: 720 ft
Nearby Weather Stations

Elev 720 ft 35.97 °N, 95.72 °W | Updated 1 second ago

Overcast
Overcast
32.1 °F
Feels Like 32 °F
N
1.0
Wind Variable Wind from North
Gusts 4.0 mph

Today
High -- | Low -- °F
--% Chance of Precip.
Yesterday
High -- | Low -- °F
Precip. -- in
6:52 AM 6:17 PM
Waxing Gibbous, 89% visible
Pressure 30.47 in
Visibility 9.0 miles
Clouds Mostly Cloudy 3500 ft
Overcast 4400 ft
Windchill 32 °F
Dew Point 28 °F
Humidity 85%
Rainfall 0.00 in
Snow Depth Not available.
UV 0 out of 12
Pollen 2.60 out of 12
Air Quality Not available.
Flu Activity Not available.
METAR KMKO 020253Z AUTO 35007KT 9SM BKN035 OVC044 00/M03 A3045 RMK AO2 SLP316 T00001028 53013

More Conditions Fewer Conditions

Pressure 30.47 in
Visibility 9.0 miles
Clouds Mostly Cloudy 3500 ft
Overcast 4400 ft
Windchill 32 °F
Dew Point 28 °F
Humidity 85%
Rainfall 0.00 in
Snow Depth Not available.
UV 0 out of 12
Pollen 2.60 out of 12
Air Quality Not available.
Flu Activity Not available.
METAR KMKO 020253Z AUTO 35007KT 9SM BKN035 OVC044 00/M03 A3045 RMK AO2 SLP316 T00001028 53013

More Conditions Fewer Conditions

10-Day Weather Forecast

Almanac

Astronomy

Mar. 01, 2015 Rise Set
Actual Time
Civil Twilight
Nautical Twilight
Astronomical Twilight
Moon
Length of Visible Light
Length of Day
Tomorrow will be .
, % of the Moon is Illuminated

Today's Extremes

State Highs State Lows

Community

WunderPhotos

Upload Photos

1,801,717 photos uploaded!

WunderBlogs® & News

Nearby

Air Quality

  Air Quality AQ Index Pollutant
Not available.

Snow Depth

Station Depth Elevation

Earthquake Activity

City Distance Mag. Time & Date
Minimum magnitude displayed is 2.5.

Coastal Water Temperatures

Place Temperature

Nearby Weather Stations